Les destinations

Voici quelques informations relatives aux aéroports fréquentés par Air Tahiti Nui Virtual : codes, pistes, METAR en cours etc.

Vous trouverez les aéroports des destinations :

Réelles : rotations effectuées à ce jour par Air Tahiti Nui
Code share : purement fictives et calquées sur les destinations assurées depuis Tahiti par d'autres compagnies (Air Calin, LAN et Hawaiin Airlines)
Historiques : anciennes destinations assurées par Air Tahiti Nui jusqu'en 2008

REELLES Aéroport Codes
OACI / IATA
Piste(s)
N° - Dim (m)
Elévation
(ft / m)
METAR
(source NOAA)
Tahiti Faa'a NTAA / PPT 04 / 22 - 3450 x 45 6 / 2 2017/09/24 19:00
NTAA 241900Z 21010KT 9999 FEW020 BKN048 BKN083 27/23 Q1018 NOSIG
Auckland NZAA / AKL 05R / 23L - 3535 x 45 23 / 7 2017/09/24 19:00
NZAA 241900Z AUTO 33005KT 9999 OVC028/// 14/11 Q1019 NOSIG
Tokyo Narita RJAA / NRT 16R / 34L - 4000 x 60
16L / 34R - 2500 x 60
135 / 45 2017/09/24 19:00
RJAA 241900Z 08001KT 9999 MIFG FEW030 18/17 Q1015 NOSIG
Los Angeles KLAX / LAX 07L / 25R - 3685 x 46
07R / 25L - 3135 x 46
06L / 24R - 2721 x 46
06R / 24L - 3135 x 46
127 / 42 2017/09/24 18:53
KLAX 241853Z VRB06KT 10SM FEW035 27/09 A2988 RMK AO2 SLP117 FU FEW035 T02670089
Paris Charles De Gaule LFPG / CDG 08L / 26R - 4215 x 45
08R / 26L - 2700 x 60
09L / 27R - 2700 x 60
09R / 27L - 4200 x 45
392 / 130 2017/09/24 19:00
LFPG 241900Z 10006KT CAVOK 19/11 Q1020 NOSIG



CODE-SHARE Aéroport Codes
OACI / IATA
Piste(s)
N° - Dim (m)
Elévation
(ft / m)
METAR
(source NOAA)
Hanga Roa SCIP / IPC 10 / 28 - 3303 x 45 227 / 75 2017/09/24 19:00
SCIP 241900Z 31016KT 9999 FEW020 BKN230 22/17 Q1021 NOSIG
Nouméa La Tontouta NWWW / NOU 11 / 29 - 3250 x 45 12 / 4 2017/09/24 19:00
NWWW 241900Z AUTO 00000KT CAVOK 16/14 Q1018 NOSIG
Honolulu PHNL / HNL 08L / 26R - 3753 x 46
08R / 26L - 3658 x 61
04L / 22R - 2119 x 46
04R / 22L - 2743 x 46
13 / 4 2017/09/24 18:53
PHNL 241853Z 07008KT 10SM FEW026 FEW045 FEW055 28/18 A3000 RMK AO2 SLP160 T02830183



HISTORIQUES Aéroport Codes
OACI / IATA
Piste(s)
N° - Dim (m)
Elévation
(ft / m)
METAR (source NOAA)
Sydney Kingsford YSSY / SYD 16R / 34L - 3962 x 45
16L / 34R - 2438 x 45
07 / 25 - 2530 x 45
21 / 7 2017/09/24 19:00
YSSY 241900Z 00000KT CAVOK 18/02 Q1005 FM1900 MOD/SEV TURB BLW 5000FT
New York J.F. Kennedy KJFK / JFK 13R / 31L - 4423 x 61
13L / 31R - 3048 x 46
04R / 22L - 2560 x 61
04L / 22R - 3682 x 61
12 / 4 2017/09/24 18:51
KJFK 241851Z 19009KT 10SM CLR 31/18 A3005 RMK AO2 SLP174 T03060183